Time;durP1;ratioP1;P1;durP2;ratioP2;P2;SDS_P1;SDS_P2;PMS_P1;PMS_P2;Temp;Humidity;BMP_temperature;BMP_pressure;BME280_temperature;BME280_humidity;BME280_pressure;Samples;Min_cycle;Max_cycle;Signal;HPM_P1;HPM_P2
2023/08/27 00:02:00;;;;;;;1999.90;999.90;;;;;;;15.14;100.00;100910.44;10459952;28;20565;-69
2023/08/27 00:07:02;;;;;;;1999.90;999.90;;;;;;;14.98;100.00;100897.59;10460453;28;20055;-69
2023/08/27 00:12:05;;;;;;;1999.90;999.90;;;;;;;14.82;100.00;100883.84;10442047;28;20044;-69
2023/08/27 00:17:08;;;;;;;1999.90;999.90;;;;;;;14.86;100.00;100901.09;10442316;28;20045;-69
2023/08/27 00:22:10;;;;;;;1999.90;999.90;;;;;;;15.31;100.00;100906.53;10459799;28;20056;-69
2023/08/27 00:27:13;;;;;;;1999.90;999.90;;;;;;;15.09;100.00;100896.75;10441910;28;20099;-68
2023/08/27 00:32:15;;;;;;;1999.90;999.90;;;;;;;14.99;100.00;100901.88;10458963;28;20141;-69
2023/08/27 00:37:27;;;;;;;1999.90;999.90;;;;;;;15.05;100.00;100906.72;10458568;28;20559;-69
2023/08/27 00:42:29;;;;;;;1999.90;999.90;;;;;;;14.94;100.00;100919.84;10458903;28;20123;-69
2023/08/27 00:47:35;;;;;;;1999.90;999.90;;;;;;;14.81;100.00;100911.16;10458815;28;20045;-68
2023/08/27 00:52:38;;;;;;;1999.90;999.90;;;;;;;14.81;100.00;100896.19;10441205;28;20048;-68
2023/08/27 00:57:40;;;;;;;1999.90;999.90;;;;;;;14.97;100.00;100884.50;10458335;28;20049;-68
2023/08/27 01:02:44;;;;;;;1999.90;999.90;;;;;;;15.08;100.00;100873.16;10457553;28;20516;-69
2023/08/27 01:08:10;;;;;;;1999.90;999.90;;;;;;;15.10;100.00;100861.53;10456505;28;20149;-69
2023/08/27 01:13:16;;;;;;;1999.90;999.90;;;;;;;14.97;100.00;100847.59;10440193;28;20055;-69
2023/08/27 01:18:19;;;;;;;1999.90;999.90;;;;;;;15.15;100.00;100819.84;10439838;28;20424;-69
2023/08/27 01:23:21;;;;;;;1999.90;999.90;;;;;;;15.27;100.00;100809.31;10439834;28;20055;-69
2023/08/27 01:28:37;;;;;;;1999.90;999.90;;;;;;;15.26;100.00;100819.00;10456725;28;20482;-69
2023/08/27 01:33:41;;;;;;;1999.90;999.90;;;;;;;15.14;100.00;100812.88;10439430;28;20132;-69
2023/08/27 01:38:43;;;;;;;1999.90;999.90;;;;;;;15.11;100.00;100793.81;10438681;28;20052;-70
2023/08/27 01:43:45;;;;;;;1999.90;999.90;;;;;;;15.01;100.00;100791.03;10439265;28;20057;-69
2023/08/27 01:48:48;;;;;;;1999.90;999.90;;;;;;;14.97;100.00;100797.50;10456422;28;20520;-69
2023/08/27 01:53:50;;;;;;;1999.90;999.90;;;;;;;14.99;100.00;100799.06;10457004;28;20124;-69
2023/08/27 01:58:52;;;;;;;1999.90;999.90;;;;;;;14.88;100.00;100804.31;10455948;28;20041;-70
2023/08/27 02:03:55;;;;;;;1999.90;999.90;;;;;;;14.84;100.00;100814.25;10455930;28;20416;-69
2023/08/27 02:08:57;;;;;;;1999.90;999.90;;;;;;;14.92;100.00;100813.66;10456401;28;20128;-69
2023/08/27 02:13:59;;;;;;;1999.90;999.90;;;;;;;14.86;100.00;100822.03;10455737;28;20051;-69
2023/08/27 02:19:03;;;;;;;1999.90;999.90;;;;;;;14.63;100.00;100814.06;10440290;28;20041;-69
2023/08/27 02:24:05;;;;;;;1999.90;999.90;;;;;;;14.60;100.00;100806.38;10463738;28;20405;-69
2023/08/27 02:29:07;;;;;;;1999.90;999.90;;;;;;;14.85;100.00;100792.22;10463536;28;20484;-69
2023/08/27 02:34:10;;;;;;;1999.90;999.90;;;;;;;14.70;100.00;100785.47;10463310;28;20341;-69
2023/08/27 02:39:12;;;;;;;1999.90;999.90;;;;;;;14.92;100.00;100771.50;10445538;28;20060;-69
2023/08/27 02:44:14;;;;;;;1999.90;999.90;;;;;;;14.39;100.00;100790.34;10471487;22;20401;-68
2023/08/27 02:49:17;;;;;;;1999.90;999.90;;;;;;;14.46;100.00;100788.09;10461462;28;20512;-69
2023/08/27 02:54:19;;;;;;;1999.90;999.90;;;;;;;14.36;100.00;100782.66;10462820;28;20405;-69
2023/08/27 02:59:22;;;;;;;1999.90;999.90;;;;;;;14.54;100.00;100774.34;10463046;28;20132;-69
2023/08/27 03:04:24;;;;;;;1999.90;999.90;;;;;;;14.36;100.00;100780.03;10462626;28;20489;-69
2023/08/27 03:09:26;;;;;;;1999.90;999.90;;;;;;;14.48;100.00;100794.91;10462066;28;20041;-69
2023/08/27 03:14:29;;;;;;;1999.90;999.90;;;;;;;14.59;100.00;100798.59;10462222;28;20061;-69
2023/08/27 03:19:31;;;;;;;1999.90;999.90;;;;;;;14.53;100.00;100809.56;10462275;28;20052;-69
2023/08/27 03:24:33;;;;;;;1999.90;999.90;;;;;;;14.37;100.00;100804.56;10462142;28;20049;-69
2023/08/27 03:29:36;;;;;;;1999.90;999.90;;;;;;;14.54;100.00;100811.22;10461249;28;20047;-69
2023/08/27 03:34:38;;;;;;;1999.90;999.90;;;;;;;14.74;100.00;100831.69;10461829;28;20045;-69
2023/08/27 03:39:40;;;;;;;1999.90;999.90;;;;;;;14.45;100.00;100855.72;10461443;28;20041;-68
2023/08/27 03:44:43;;;;;;;1999.90;999.90;;;;;;;14.13;100.00;100814.13;10460555;28;20048;-65
2023/08/27 03:49:45;;;;;;;1999.90;999.90;;;;;;;14.34;100.00;100796.88;10461224;28;20051;-66
2023/08/27 03:54:47;;;;;;;1999.90;999.90;;;;;;;14.47;100.00;100788.00;10461004;28;20068;-65
2023/08/27 03:59:50;;;;;;;1999.90;999.90;;;;;;;14.39;100.00;100808.78;10460068;28;20375;-66
2023/08/27 04:04:52;;;;;;;1999.90;999.90;;;;;;;14.51;100.00;100804.41;10443010;28;20053;-66
2023/08/27 04:09:54;;;;;;;1999.90;999.90;;;;;;;14.42;100.00;100837.50;10460377;28;20057;-65
2023/08/27 04:14:57;;;;;;;1999.90;999.90;;;;;;;14.17;100.00;100835.84;10460185;28;20045;-65
2023/08/27 04:19:59;;;;;;;1999.90;999.90;;;;;;;14.54;100.00;100822.63;10459264;28;20379;-65
2023/08/27 04:25:02;;;;;;;1999.90;999.90;;;;;;;14.13;100.00;100834.38;10459772;28;20049;-65
2023/08/27 04:30:06;;;;;;;1999.90;999.90;;;;;;;14.61;100.00;100842.31;10441812;28;20053;-65
2023/08/27 04:35:09;;;;;;;1999.90;999.90;;;;;;;14.59;100.00;100846.88;10441040;28;20053;-65
2023/08/27 04:40:11;;;;;;;1999.90;999.90;;;;;;;14.51;100.00;100820.22;10441490;28;20068;-65
2023/08/27 04:45:14;;;;;;;1999.90;999.90;;;;;;;14.44;100.00;100818.97;10441066;28;20139;-65
2023/08/27 04:50:16;;;;;;;1999.90;999.90;;;;;;;14.72;100.00;100806.44;10458865;28;20045;-65
2023/08/27 04:55:19;;;;;;;1999.90;999.90;;;;;;;14.56;100.00;100823.34;10458608;28;20059;-65
2023/08/27 05:00:21;;;;;;;1999.90;999.90;;;;;;;14.52;100.00;100827.13;10458335;28;20045;-66
2023/08/27 05:05:24;;;;;;;1999.90;999.90;;;;;;;14.39;100.00;100832.50;10458179;28;20058;-66
2023/08/27 05:10:26;;;;;;;1999.90;999.90;;;;;;;14.39;100.00;100837.75;10457408;28;20481;-66
2023/08/27 05:15:28;;;;;;;1999.90;999.90;;;;;;;14.65;100.00;100827.94;10457254;28;20572;-66
2023/08/27 05:20:31;;;;;;;1999.90;999.90;;;;;;;14.57;100.00;100837.34;10457027;28;20048;-66
2023/08/27 05:25:34;;;;;;;1999.90;999.90;;;;;;;14.51;100.00;100830.75;10457519;28;20055;-66
2023/08/27 05:30:37;;;;;;;1999.90;999.90;;;;;;;14.67;100.00;100831.31;10457388;28;20045;-66
2023/08/27 05:35:40;;;;;;;1999.90;999.90;;;;;;;14.55;100.00;100828.72;10457272;28;20059;-66
2023/08/27 05:40:42;;;;;;;1999.90;999.90;;;;;;;14.62;100.00;100824.72;10457056;28;20083;-66
2023/08/27 05:45:44;;;;;;;1999.90;999.90;;;;;;;14.70;100.00;100824.16;10456896;28;20072;-66
2023/08/27 05:50:47;;;;;;;1999.90;999.90;;;;;;;14.73;100.00;100803.69;10456891;28;20041;-67
2023/08/27 05:55:49;;;;;;;1999.90;999.90;;;;;;;15.02;100.00;100808.53;10456295;28;20131;-67
2023/08/27 06:00:54;;;;;;;1999.90;999.90;;;;;;;14.92;100.00;100821.56;10456599;28;20049;-67
2023/08/27 06:05:57;;;;;;;1999.90;999.90;;;;;;;15.00;100.00;100807.84;10456616;28;20045;-67
2023/08/27 06:10:59;;;;;;;1999.90;999.90;;;;;;;15.11;100.00;100807.84;10456502;28;20049;-67
2023/08/27 06:16:01;;;;;;;1999.90;999.90;;;;;;;15.16;100.00;100818.91;10455768;28;20418;-67
2023/08/27 06:21:04;;;;;;;1999.90;999.90;;;;;;;15.30;100.00;100806.41;10456252;28;20278;-68
2023/08/27 06:26:06;;;;;;;1999.90;999.90;;;;;;;15.20;100.00;100793.94;10455588;28;20060;-67
2023/08/27 06:31:08;;;;;;;1999.90;999.90;;;;;;;15.21;100.00;100787.72;10456125;28;20085;-68
2023/08/27 06:36:11;;;;;;;1999.90;999.90;;;;;;;15.17;100.00;100799.47;10456050;28;20052;-67
2023/08/27 06:41:13;;;;;;;1999.90;999.90;;;;;;;15.17;100.00;100803.91;10438287;28;20049;-67
2023/08/27 06:46:16;;;;;;;1999.90;999.90;;;;;;;15.22;100.00;100792.03;10455559;28;20057;-67
2023/08/27 06:51:18;;;;;;;1999.90;999.90;;;;;;;15.31;100.00;100798.38;10455740;28;20049;-67
2023/08/27 06:56:21;;;;;;;1999.90;999.90;;;;;;;15.48;100.00;100790.97;10455674;28;20128;-67
2023/08/27 07:01:23;;;;;;;1999.90;999.90;;;;;;;15.58;100.00;100784.88;10455514;28;20045;-67
2023/08/27 07:06:26;;;;;;;1999.90;999.90;;;;;;;15.60;100.00;100777.66;10440249;28;20119;-67
2023/08/27 07:11:28;;;;;;;1999.90;999.90;;;;;;;15.87;100.00;100773.81;10462775;28;20048;-68
2023/08/27 07:16:31;;;;;;;1999.90;999.90;;;;;;;15.86;100.00;100781.88;10462622;28;20151;-67
2023/08/27 07:21:33;;;;;;;1999.90;999.90;;;;;;;16.04;100.00;100788.31;10462327;28;20051;-67
2023/08/27 07:26:35;;;;;;;1999.90;999.90;;;;;;;15.76;100.00;100782.59;10462239;28;20207;-67
2023/08/27 07:31:38;;;;;;;1999.90;999.90;;;;;;;16.39;100.00;100787.25;10444289;28;20055;-68
2023/08/27 07:36:40;;;;;;;1999.90;999.90;;;;;;;16.81;100.00;100789.94;10461085;28;20057;-67
2023/08/27 07:41:42;;;;;;;1999.90;999.90;;;;;;;17.60;100.00;100776.16;10461610;28;20049;-68
2023/08/27 07:46:45;;;;;;;1999.90;999.90;;;;;;;17.75;100.00;100787.22;10460804;28;20473;-67
2023/08/27 07:51:47;;;;;;;1999.90;999.90;;;;;;;18.00;100.00;100790.34;10460581;28;20049;-68
2023/08/27 07:56:49;;;;;;;1999.90;999.90;;;;;;;18.14;100.00;100776.72;10460940;28;20053;-68
2023/08/27 08:01:52;;;;;;;1999.90;999.90;;;;;;;18.51;100.00;100772.56;10460903;28;20127;-68
2023/08/27 08:06:54;;;;;;;1999.90;999.90;;;;;;;18.68;100.00;100776.31;10460629;28;20136;-67
2023/08/27 08:11:57;;;;;;;1999.90;999.90;;;;;;;18.76;100.00;100781.72;10442847;28;20051;-67
2023/08/27 08:16:59;;;;;;;1999.90;999.90;;;;;;;18.39;100.00;100771.84;10459734;28;20127;-67
2023/08/27 08:22:01;;;;;;;1999.90;999.90;;;;;;;18.29;100.00;100779.81;10460028;28;20112;-67
2023/08/27 08:27:04;;;;;;;1999.90;999.90;;;;;;;18.55;97.38;100776.59;10442206;28;20045;-67
2023/08/27 08:32:06;;;;;;;1999.90;999.90;;;;;;;18.02;100.00;100783.09;10459965;28;20072;-67
2023/08/27 08:37:09;;;;;;;1999.90;999.90;;;;;;;18.19;100.00;100782.44;10442043;28;20048;-67
2023/08/27 08:42:23;;;;;;;1999.90;999.90;;;;;;;18.62;100.00;100776.88;10458587;28;20401;-67
2023/08/27 08:47:26;;;;;;;1999.90;999.90;;;;;;;20.52;99.51;100775.59;10458829;28;20107;-67
2023/08/27 08:52:30;;;;;;;1999.90;999.90;;;;;;;20.13;96.42;100770.59;10440540;28;20456;-68
2023/08/27 08:57:35;;;;;;;1999.90;999.90;;;;;;;20.89;95.18;100771.94;10441396;28;20140;-68
2023/08/27 09:02:39;;;;;;;1999.90;999.90;;;;;;;20.97;86.86;100753.34;10440177;28;20516;-68
2023/08/27 09:07:42;;;;;;;1999.90;999.90;;;;;;;21.26;91.05;100760.16;10440685;28;20041;-68
2023/08/27 09:12:46;;;;;;;1999.90;999.90;;;;;;;20.39;91.12;100746.72;10439879;28;20585;-68
2023/08/27 09:17:49;;;;;;;1999.90;999.90;;;;;;;19.78;91.73;100738.50;10440493;28;20127;-68
2023/08/27 09:22:51;;;;;;;1999.90;999.90;;;;;;;20.17;86.08;100726.78;10457375;28;20103;-68
2023/08/27 09:27:54;;;;;;;1999.90;999.90;;;;;;;19.18;88.26;100740.75;10439196;28;20052;-68
2023/08/27 09:32:56;;;;;;;1999.90;999.90;;;;;;;21.01;80.75;100721.94;10439802;28;20053;-68
2023/08/27 09:37:58;;;;;;;1999.90;999.90;;;;;;;22.29;81.37;100725.34;10457070;28;20128;-68
2023/08/27 09:43:09;;;;;;;1999.90;999.90;;;;;;;23.16;74.75;100716.72;10439489;28;20048;-68
2023/08/27 09:48:22;;;;;;;1999.90;999.90;;;;;;;23.02;71.98;100720.91;10456405;28;20063;-68
2023/08/27 09:53:25;;;;;;;1999.90;999.90;;;;;;;23.14;70.66;100710.72;10456211;28;20418;-69
2023/08/27 09:58:27;;;;;;;1999.90;999.90;;;;;;;23.35;71.18;100700.28;10456677;28;20051;-68
2023/08/27 10:03:30;;;;;;;1999.90;999.90;;;;;;;23.61;67.20;100698.34;10456393;28;20143;-69
2023/08/27 10:08:32;;;;;;;1999.90;999.90;;;;;;;25.34;65.35;100709.19;10456496;28;20053;-69
2023/08/27 10:13:36;;;;;;;1999.90;999.90;;;;;;;24.49;62.93;100697.00;10456390;28;20055;-69
2023/08/27 10:18:39;;;;;;;1999.90;999.90;;;;;;;24.85;62.33;100699.03;10438038;28;20049;-67
2023/08/27 10:23:42;;;;;;;1999.90;999.90;;;;;;;24.87;56.85;100706.88;10438023;28;20082;-68
2023/08/27 10:28:45;;;;;;;1999.90;999.90;;;;;;;26.37;58.07;100695.59;10455472;28;20051;-68
2023/08/27 10:33:47;;;;;;;1999.90;999.90;;;;;;;25.49;59.21;100687.72;10455975;28;20102;-69
2023/08/27 10:38:50;;;;;;;1999.90;999.90;;;;;;;25.87;56.21;100706.28;10438207;28;20045;-68
2023/08/27 10:43:52;;;;;;;1999.90;999.90;;;;;;;23.41;63.47;100697.94;10429068;28;20049;-67
2023/08/27 10:48:55;;;;;;;1999.90;999.90;;;;;;;23.26;64.42;100711.19;10462797;28;20469;-68
2023/08/27 10:53:59;;;;;;;1999.90;999.90;;;;;;;22.18;66.97;100702.47;10463402;28;20052;-68
2023/08/27 10:59:04;;;;;;;1999.90;999.90;;;;;;;22.67;65.51;100687.47;10446016;28;20045;-69
2023/08/27 11:04:07;;;;;;;1999.90;999.90;;;;;;;22.04;65.48;100698.66;10445309;28;20056;-68
2023/08/27 11:09:14;;;;;;;1999.90;999.90;;;;;;;22.22;64.50;100682.47;10462793;28;20120;-69
2023/08/27 11:14:25;;;;;;;1999.90;999.90;;;;;;;24.43;63.20;100671.00;10446411;28;20128;-68
2023/08/27 11:19:34;;;;;;;1999.90;999.90;;;;;;;23.20;60.71;100672.66;10444692;28;20055;-68
2023/08/27 11:24:43;;;;;;;1999.90;999.90;;;;;;;22.25;65.05;100700.81;10444200;28;20405;-69
2023/08/27 11:29:55;;;;;;;1999.90;999.90;;;;;;;21.99;65.36;100708.13;10445029;28;20124;-68
2023/08/27 11:34:58;;;;;;;1999.90;999.90;;;;;;;20.93;68.50;100706.75;10461891;28;20103;-68
2023/08/27 11:40:01;;;;;;;1999.90;999.90;;;;;;;20.26;68.66;100746.28;10461581;28;20090;-68
2023/08/27 11:45:03;;;;;;;1999.90;999.90;;;;;;;18.13;70.16;100747.72;10460673;28;20049;-67
2023/08/27 11:50:08;;;;;;;1999.90;999.90;;;;;;;16.77;80.25;100793.78;10461376;28;20053;-67
2023/08/27 11:55:10;;;;;;;1999.90;999.90;;;;;;;16.72;88.01;100786.22;10459716;28;20405;-65
2023/08/27 12:00:13;;;;;;;1999.90;999.90;;;;;;;16.07;95.50;100787.22;10442667;28;20038;-65
2023/08/27 12:05:16;;;;;;;1999.90;999.90;;;;;;;16.16;100.00;100794.41;10460705;28;20053;-65
2023/08/27 12:10:20;;;;;;;1999.90;999.90;;;;;;;16.00;100.00;100797.41;10460584;28;20055;-66
2023/08/27 12:15:29;;;;;;;1999.90;999.90;;;;;;;15.94;100.00;100801.41;10442631;28;20556;-66
2023/08/27 12:20:32;;;;;;;1999.90;999.90;;;;;;;16.29;93.80;100799.50;10442556;28;20156;-66
2023/08/27 12:25:45;;;;;;;1999.90;999.90;;;;;;;16.53;100.00;100802.78;10459362;28;20059;-66
2023/08/27 12:30:54;;;;;;;1999.90;999.90;;;;;;;16.31;96.79;100808.16;10442141;28;20078;-65
2023/08/27 12:36:04;;;;;;;1999.90;999.90;;;;;;;16.39;97.21;100816.31;10442348;28;20059;-66
2023/08/27 12:41:06;;;;;;;1999.90;999.90;;;;;;;16.41;98.96;100817.03;10425315;28;20128;-66
2023/08/27 12:46:09;;;;;;;1999.90;999.90;;;;;;;16.65;96.61;100827.38;10458315;28;20119;-66
2023/08/27 12:51:11;;;;;;;1999.90;999.90;;;;;;;16.64;100.00;100848.63;10441203;28;20052;-67
2023/08/27 12:56:14;;;;;;;1999.90;999.90;;;;;;;16.23;100.00;100839.66;10458728;28;20059;-67
2023/08/27 13:01:17;;;;;;;1999.90;999.90;;;;;;;16.12;100.00;100844.00;10458421;28;20049;-67
2023/08/27 13:06:19;;;;;;;1999.90;999.90;;;;;;;16.20;100.00;100848.66;10457692;28;20160;-67
2023/08/27 13:11:22;;;;;;;1999.90;999.90;;;;;;;16.48;100.00;100841.13;10440503;28;20099;-67
2023/08/27 13:16:24;;;;;;;1999.90;999.90;;;;;;;17.64;100.00;100827.84;10457367;28;20378;-67
2023/08/27 13:21:26;;;;;;;1999.90;999.90;;;;;;;19.92;96.31;100803.63;10457760;28;20045;-67
2023/08/27 13:26:29;;;;;;;1999.90;999.90;;;;;;;20.59;81.75;100805.91;10457660;28;20077;-67
2023/08/27 13:31:31;;;;;;;1999.90;999.90;;;;;;;20.95;82.85;100806.72;10457457;28;20086;-67
2023/08/27 13:36:34;;;;;;;1999.90;999.90;;;;;;;20.71;79.78;100796.75;10457919;28;20128;-66
2023/08/27 13:41:36;;;;;;;1999.90;999.90;;;;;;;20.82;79.24;100798.31;10457134;28;20045;-66
2023/08/27 13:46:40;;;;;;;1999.90;999.90;;;;;;;22.21;76.98;100781.31;10456184;28;20493;-66
2023/08/27 13:51:43;;;;;;;1999.90;999.90;;;;;;;22.02;75.56;100769.09;10456973;28;20073;-67
2023/08/27 13:56:45;;;;;;;1999.90;999.90;;;;;;;22.60;77.36;100762.03;10456885;28;20051;-67
2023/08/27 14:01:48;;;;;;;1999.90;999.90;;;;;;;22.59;72.71;100768.34;10456616;28;20049;-67
2023/08/27 14:06:51;;;;;;;1999.90;999.90;;;;;;;21.75;69.68;100767.53;10438264;28;20498;-67
2023/08/27 14:11:53;;;;;;;1999.90;999.90;;;;;;;21.78;67.34;100764.56;10456385;28;20045;-67
2023/08/27 14:16:55;;;;;;;1999.90;999.90;;;;;;;23.91;67.59;100769.66;10444042;28;20053;-67
2023/08/27 14:21:58;;;;;;;1999.90;999.90;;;;;;;22.93;65.59;100776.16;10464592;28;20124;-67
2023/08/27 14:27:00;;;;;;;1999.90;999.90;;;;;;;23.27;66.42;100771.63;10463990;28;20478;-67
2023/08/27 14:32:04;;;;;;;1999.90;999.90;;;;;;;22.13;66.22;100767.97;10463627;28;20077;-66
2023/08/27 14:37:06;;;;;;;1999.90;999.90;;;;;;;23.37;66.68;100770.41;10445755;28;20589;-67
2023/08/27 14:42:08;;;;;;;1999.90;999.90;;;;;;;24.29;62.97;100767.09;10463811;28;20044;-67
2023/08/27 14:47:11;;;;;;;1999.90;999.90;;;;;;;24.87;59.42;100755.06;10463239;28;20063;-67
2023/08/27 14:52:13;;;;;;;1999.90;999.90;;;;;;;;;;10445793;28;20051;-67
2023/08/27 14:57:15;;;;;;;1999.90;999.90;;;;;;;23.27;60.56;100763.59;10463060;28;20469;-67
2023/08/27 15:02:18;;;;;;;1999.90;999.90;;;;;;;23.15;62.73;100761.31;10469863;22;20148;-65
2023/08/27 15:07:21;;;;;;;1999.90;999.90;;;;;;;23.10;61.16;100754.78;10445515;28;20072;-66
2023/08/27 15:12:24;;;;;;;1999.90;999.90;;;;;;;21.06;65.58;100765.69;10462782;28;20045;-65
2023/08/27 15:17:26;;;;;;;1999.90;999.90;;;;;;;20.43;67.66;100782.69;10462640;28;20049;-65
2023/08/27 15:22:29;;;;;;;1999.90;999.90;;;;;;;20.13;70.54;100781.25;10462006;28;20454;-65
2023/08/27 15:27:32;;;;;;;1999.90;999.90;;;;;;;19.31;73.34;100797.00;10460277;28;20053;-65
2023/08/27 15:32:34;;;;;;;1999.90;999.90;;;;;;;19.20;76.76;100805.97;10461448;28;20124;-66
2023/08/27 15:37:37;;;;;;;1999.90;999.90;;;;;;;18.31;78.06;100809.66;10461882;28;20060;-66
2023/08/27 15:42:39;;;;;;;1999.90;999.90;;;;;;;18.82;78.14;100826.25;10461746;28;20045;-66
2023/08/27 15:47:46;;;;;;;1999.90;999.90;;;;;;;19.01;74.65;100817.47;10461444;28;20045;-66
2023/08/27 15:52:48;;;;;;;1999.90;999.90;;;;;;;18.83;77.82;100814.72;10461282;28;20114;-66
2023/08/27 15:57:51;;;;;;;1999.90;999.90;;;;;;;19.58;74.29;100813.94;10461051;28;20055;-66
2023/08/27 16:02:53;;;;;;;1999.90;999.90;;;;;;;19.80;71.16;100805.63;10460238;28;20055;-66
2023/08/27 16:07:56;;;;;;;1999.90;999.90;;;;;;;19.05;72.97;100807.44;10460700;28;20123;-66
2023/08/27 16:12:59;;;;;;;1999.90;999.90;;;;;;;19.02;73.43;100805.06;10460512;28;20064;-66
2023/08/27 16:18:01;;;;;;;1999.90;999.90;;;;;;;18.33;75.73;100815.66;10459588;28;20537;-66
2023/08/27 16:23:04;;;;;;;1999.90;999.90;;;;;;;18.17;74.51;100818.00;10460039;28;20049;-66
2023/08/27 16:28:07;;;;;;;1999.90;999.90;;;;;;;18.27;75.75;100836.56;10459256;28;20478;-66
2023/08/27 16:33:09;;;;;;;1999.90;999.90;;;;;;;18.13;77.61;100841.28;10459642;28;20053;-65
2023/08/27 16:38:12;;;;;;;1999.90;999.90;;;;;;;17.97;76.49;100847.09;10425220;28;20115;-65
2023/08/27 16:43:14;;;;;;;1999.90;999.90;;;;;;;18.43;75.08;100852.78;10459302;28;20136;-65
2023/08/27 16:48:16;;;;;;;1999.90;999.90;;;;;;;18.47;73.18;100855.97;10458355;28;20137;-65
2023/08/27 16:53:19;;;;;;;1999.90;999.90;;;;;;;18.36;73.53;100851.66;10459400;28;20062;-66
2023/08/27 16:58:21;;;;;;;1999.90;999.90;;;;;;;17.87;77.53;100851.53;10440370;28;20477;-66
2023/08/27 17:03:24;;;;;;;1999.90;999.90;;;;;;;18.14;75.88;100850.91;10457592;28;20053;-66
2023/08/27 17:08:27;;;;;;;1999.90;999.90;;;;;;;18.12;78.68;100844.06;10457720;28;20060;-66
2023/08/27 17:13:29;;;;;;;1999.90;999.90;;;;;;;17.99;78.60;100847.81;10458139;28;20049;-66
2023/08/27 17:18:31;;;;;;;1999.90;999.90;;;;;;;17.69;80.39;100861.06;10423921;28;20132;-66
2023/08/27 17:23:34;;;;;;;1999.90;999.90;;;;;;;16.99;83.24;100869.53;10457745;28;20072;-66
2023/08/27 17:28:36;;;;;;;1999.90;999.90;;;;;;;17.41;84.50;100876.63;10439308;28;20088;-66
2023/08/27 17:33:38;;;;;;;1999.90;999.90;;;;;;;17.44;83.16;100866.63;10456701;28;20422;-66
2023/08/27 17:38:41;;;;;;;1999.90;999.90;;;;;;;17.33;83.44;100882.59;10456606;28;20405;-65
2023/08/27 17:43:43;;;;;;;1999.90;999.90;;;;;;;16.62;87.98;100879.66;10457160;28;20083;-65
2023/08/27 17:48:45;;;;;;;1999.90;999.90;;;;;;;16.74;89.06;100886.56;10456362;28;20041;-66
2023/08/27 17:53:48;;;;;;;1999.90;999.90;;;;;;;16.81;91.08;100895.69;10456295;28;20136;-66
2023/08/27 17:58:51;;;;;;;1999.90;999.90;;;;;;;16.53;92.47;100894.47;10456727;28;20060;-66
2023/08/27 18:03:53;;;;;;;1999.90;999.90;;;;;;;16.53;94.12;100897.94;10406776;28;20099;-66
2023/08/27 18:08:56;;;;;;;1999.90;999.90;;;;;;;16.16;97.54;100910.63;10456602;28;20052;-66
2023/08/27 18:13:58;;;;;;;1999.90;999.90;;;;;;;16.20;96.61;100912.03;10438161;28;20486;-66
2023/08/27 18:19:00;;;;;;;1999.90;999.90;;;;;;;15.99;99.37;100914.59;10438762;28;20056;-66
2023/08/27 18:24:03;;;;;;;1999.90;999.90;;;;;;;16.08;98.42;100919.13;10455696;28;20558;-66
2023/08/27 18:29:05;;;;;;;1999.90;999.90;;;;;;;15.56;100.00;100937.19;10455513;28;20482;-66
2023/08/27 18:34:08;;;;;;;1999.90;999.90;;;;;;;15.92;100.00;100934.50;10438415;28;20140;-66
2023/08/27 18:39:10;;;;;;;1999.90;999.90;;;;;;;15.73;100.00;100942.97;10455911;28;20134;-66
2023/08/27 18:44:12;;;;;;;1999.90;999.90;;;;;;;15.56;100.00;100934.53;10456052;28;20048;-67
2023/08/27 18:49:15;;;;;;;1999.90;999.90;;;;;;;15.66;100.00;100947.88;10455859;28;20128;-66
2023/08/27 18:54:17;;;;;;;1999.90;999.90;;;;;;;15.61;100.00;100957.94;10455264;28;20473;-66
2023/08/27 18:59:19;;;;;;;1999.90;999.90;;;;;;;15.08;100.00;100955.75;10437893;28;20051;-66
2023/08/27 19:04:22;;;;;;;1999.90;999.90;;;;;;;14.99;100.00;100962.53;10462266;28;20053;-66
2023/08/27 19:09:25;;;;;;;1999.90;999.90;;;;;;;14.81;100.00;100971.78;10462947;28;20045;-66
2023/08/27 19:14:27;;;;;;;1999.90;999.90;;;;;;;14.70;100.00;100980.47;10462257;28;20143;-66
2023/08/27 19:19:29;;;;;;;1999.90;999.90;;;;;;;14.85;100.00;100975.88;10462551;28;20049;-67
2023/08/27 19:24:32;;;;;;;1999.90;999.90;;;;;;;14.76;100.00;100972.13;10462432;28;20059;-66
2023/08/27 19:29:34;;;;;;;1999.90;999.90;;;;;;;15.04;100.00;100980.66;10445045;28;20049;-66
2023/08/27 19:34:36;;;;;;;1999.90;999.90;;;;;;;14.83;100.00;100978.63;10462098;28;20053;-66
2023/08/27 19:39:39;;;;;;;1999.90;999.90;;;;;;;14.88;100.00;100983.56;10461745;28;20045;-66
2023/08/27 19:44:41;;;;;;;1999.90;999.90;;;;;;;14.79;100.00;100986.84;10461624;28;20053;-65
2023/08/27 19:49:44;;;;;;;1999.90;999.90;;;;;;;15.12;100.00;100983.56;10460807;28;20509;-66
2023/08/27 19:54:46;;;;;;;1999.90;999.90;;;;;;;14.59;100.00;100991.78;10461256;28;20059;-65
2023/08/27 19:59:48;;;;;;;1999.90;999.90;;;;;;;14.65;100.00;100985.22;10460963;28;20051;-66
2023/08/27 20:04:51;;;;;;;1999.90;999.90;;;;;;;14.93;100.00;100986.72;10442537;28;20080;-66
2023/08/27 20:09:56;;;;;;;1999.90;999.90;;;;;;;14.49;100.00;100991.56;10460671;28;20045;-65
2023/08/27 20:14:58;;;;;;;1999.90;999.90;;;;;;;14.83;100.00;100989.16;10459096;28;20057;-65
2023/08/27 20:20:00;;;;;;;1999.90;999.90;;;;;;;14.80;100.00;100993.81;10459565;28;20478;-65
2023/08/27 20:25:03;;;;;;;1999.90;999.90;;;;;;;14.79;100.00;101003.53;10459965;28;20053;-66
2023/08/27 20:30:07;;;;;;;1999.90;999.90;;;;;;;14.66;100.00;101011.47;10459857;28;20052;-66
2023/08/27 20:35:10;;;;;;;1999.90;999.90;;;;;;;14.70;100.00;101019.16;10459042;28;20165;-66
2023/08/27 20:40:12;;;;;;;1999.90;999.90;;;;;;;14.56;100.00;101020.94;10459403;28;20044;-66
2023/08/27 20:45:16;;;;;;;1999.90;999.90;;;;;;;14.66;100.00;101018.53;10459738;28;20053;-66
2023/08/27 20:50:19;;;;;;;1999.90;999.90;;;;;;;14.77;100.00;101026.50;10459038;28;20063;-66
2023/08/27 20:55:21;;;;;;;1999.90;999.90;;;;;;;14.78;100.00;101024.72;10458225;28;20045;-65
2023/08/27 21:00:24;;;;;;;1999.90;999.90;;;;;;;14.75;100.00;101033.69;10458343;28;20051;-66
2023/08/27 21:05:26;;;;;;;1999.90;999.90;;;;;;;14.97;100.00;101022.44;10458473;28;20106;-66
2023/08/27 21:10:30;;;;;;;1999.90;999.90;;;;;;;15.08;100.00;101026.09;10457586;28;20168;-66
2023/08/27 21:15:33;;;;;;;1999.90;999.90;;;;;;;15.16;100.00;101024.59;10440841;28;20080;-66
2023/08/27 21:20:35;;;;;;;1999.90;999.90;;;;;;;15.28;100.00;101027.25;10457159;28;20119;-66
2023/08/27 21:25:38;;;;;;;1999.90;999.90;;;;;;;15.15;100.00;101036.09;10456806;28;20053;-66
2023/08/27 21:30:40;;;;;;;1999.90;999.90;;;;;;;15.10;100.00;101034.75;10457523;28;20053;-66
2023/08/27 21:35:43;;;;;;;1999.90;999.90;;;;;;;15.06;100.00;101047.28;10456743;28;20052;-66
2023/08/27 21:40:52;;;;;;;1999.90;999.90;;;;;;;14.92;100.00;101053.56;10456530;28;20406;-66
2023/08/27 21:45:56;;;;;;;1999.90;999.90;;;;;;;14.89;100.00;101047.69;10439516;28;20055;-66